createdAt,value
2023-03-02T00:01:48.328Z,6.53
2023-03-02T00:04:20.774Z,6.33
2023-03-02T00:06:49.537Z,6.57
2023-03-02T00:09:17.594Z,6.70
2023-03-02T00:11:46.894Z,6.50
2023-03-02T00:14:15.701Z,6.67
2023-03-02T00:16:43.532Z,6.50
2023-03-02T00:19:11.366Z,6.80
2023-03-02T00:21:39.035Z,6.97
2023-03-02T00:24:07.583Z,5.97
2023-03-02T00:26:35.573Z,6.60
2023-03-02T00:29:05.579Z,6.20
2023-03-02T00:31:34.671Z,6.53
2023-03-02T00:34:02.516Z,6.47
2023-03-02T00:36:30.327Z,6.93
2023-03-02T00:38:58.224Z,6.77
2023-03-02T00:41:26.075Z,6.57
2023-03-02T00:43:54.065Z,6.50
2023-03-02T00:46:25.337Z,6.67
2023-03-02T00:48:53.502Z,7.00
2023-03-02T00:51:21.429Z,6.60
2023-03-02T00:53:49.217Z,6.77
2023-03-02T00:56:17.131Z,6.73
2023-03-02T00:58:49.305Z,6.63
2023-03-02T01:01:18.676Z,6.60
2023-03-02T01:03:51.229Z,6.67
2023-03-02T01:06:21.789Z,6.70
2023-03-02T01:08:49.921Z,6.90
2023-03-02T01:11:20.392Z,7.10
2023-03-02T01:13:48.736Z,7.10
2023-03-02T01:16:16.835Z,6.87
2023-03-02T01:18:44.638Z,6.60
2023-03-02T01:21:16.273Z,6.77
2023-03-02T01:23:44.057Z,7.37
2023-03-02T01:26:11.886Z,7.13
2023-03-02T01:28:39.797Z,7.23
2023-03-02T01:31:07.675Z,6.53
2023-03-02T01:33:35.595Z,7.10
2023-03-02T01:36:03.435Z,6.77
2023-03-02T01:38:33.194Z,7.23
2023-03-02T01:41:01.274Z,6.90
2023-03-02T01:43:29.485Z,6.83
2023-03-02T01:46:00.524Z,7.23
2023-03-02T01:48:55.455Z,6.83
2023-03-02T01:51:35.381Z,6.93
2023-03-02T01:54:09.138Z,6.37
2023-03-02T01:56:40.465Z,6.83
2023-03-02T01:59:13.309Z,6.40
2023-03-02T02:01:45.350Z,6.60
2023-03-02T02:04:14.151Z,7.07
2023-03-02T02:06:48.879Z,6.97
2023-03-02T02:09:21.102Z,6.47
2023-03-02T02:11:49.199Z,7.50
2023-03-02T02:14:17.247Z,7.20
2023-03-02T02:16:45.314Z,6.90
2023-03-02T02:19:32.072Z,6.80
2023-03-02T02:22:00.013Z,7.13
2023-03-02T02:24:34.799Z,6.77
2023-03-02T02:27:04.109Z,6.87
2023-03-02T02:29:35.663Z,7.43
2023-03-02T02:32:10.241Z,7.07
2023-03-02T02:34:43.594Z,7.10
2023-03-02T02:37:16.222Z,7.00
2023-03-02T02:39:47.984Z,7.03
2023-03-02T02:42:20.994Z,7.37
2023-03-02T02:44:48.970Z,7.13
2023-03-02T02:47:19.952Z,7.43
2023-03-02T02:49:49.784Z,6.80
2023-03-02T02:52:20.760Z,6.93
2023-03-02T02:54:54.844Z,7.67
2023-03-02T02:57:29.952Z,7.40
2023-03-02T03:00:01.299Z,7.50
2023-03-02T03:02:46.806Z,7.67
2023-03-02T03:05:16.350Z,8.00
2023-03-02T03:07:45.828Z,7.33
2023-03-02T03:10:20.086Z,7.13
2023-03-02T03:12:50.298Z,7.00
2023-03-02T03:15:20.574Z,7.13
2023-03-02T03:17:49.720Z,7.10
2023-03-02T03:20:18.451Z,7.00
2023-03-02T03:22:46.476Z,6.73
2023-03-02T03:25:15.358Z,6.93
2023-03-02T03:27:45.747Z,7.53
2023-03-02T03:30:17.556Z,7.47
2023-03-02T03:32:45.876Z,7.50
2023-03-02T03:35:15.815Z,6.90
2023-03-02T03:37:43.649Z,7.10
2023-03-02T03:40:12.886Z,7.27
2023-03-02T03:42:43.977Z,6.93
2023-03-02T03:45:12.394Z,7.50
2023-03-02T03:47:42.124Z,6.53
2023-03-02T03:50:11.991Z,7.23
2023-03-02T03:52:40.808Z,6.57
2023-03-02T03:55:20.245Z,6.70
2023-03-02T03:57:49.971Z,6.80
2023-03-02T04:00:18.697Z,7.60
2023-03-02T04:02:57.551Z,6.80
2023-03-02T04:05:29.161Z,6.77
2023-03-02T04:07:59.202Z,7.50
2023-03-02T04:10:26.970Z,7.10
2023-03-02T04:12:55.220Z,7.47
2023-03-02T04:15:23.665Z,7.03
2023-03-02T04:17:53.296Z,6.53
2023-03-02T04:20:26.560Z,7.00
2023-03-02T04:22:57.611Z,7.27
2023-03-02T04:25:28.315Z,6.90
2023-03-02T04:28:01.710Z,7.30
2023-03-02T04:30:34.827Z,6.73
2023-03-02T04:33:03.156Z,6.93
2023-03-02T04:35:33.655Z,7.60
2023-03-02T04:38:03.090Z,6.97
2023-03-02T04:40:31.050Z,6.83
2023-03-02T04:42:58.794Z,6.40
2023-03-02T04:45:26.652Z,5.90
2023-03-02T04:47:54.497Z,6.77
2023-03-02T04:50:22.585Z,6.03
2023-03-02T04:52:52.017Z,6.20
2023-03-02T04:55:22.179Z,5.97
2023-03-02T04:57:49.950Z,6.30
2023-03-02T05:00:21.089Z,5.83
2023-03-02T05:02:48.979Z,5.83
2023-03-02T05:05:18.405Z,5.80
2023-03-02T05:07:46.414Z,6.20
2023-03-02T05:10:17.634Z,6.20
2023-03-02T05:12:57.795Z,5.90
2023-03-02T05:15:27.837Z,6.13
2023-03-02T05:17:55.980Z,6.73
2023-03-02T05:20:27.650Z,5.97
2023-03-02T05:22:58.965Z,6.13
2023-03-02T05:25:30.052Z,5.77
2023-03-02T05:27:58.058Z,6.23
2023-03-02T05:30:26.476Z,6.27
2023-03-02T05:32:54.884Z,6.63
2023-03-02T05:35:24.273Z,6.10
2023-03-02T05:37:52.735Z,6.30
2023-03-02T05:40:22.045Z,6.40
2023-03-02T05:42:51.672Z,6.20
2023-03-02T05:45:23.260Z,7.03
2023-03-02T05:47:51.753Z,6.30
2023-03-02T05:50:20.015Z,6.03
2023-03-02T05:52:47.925Z,6.83
2023-03-02T05:55:17.745Z,6.43
2023-03-02T05:57:45.770Z,7.37
2023-03-02T06:00:16.213Z,6.70
2023-03-02T06:02:44.697Z,6.10
2023-03-02T06:05:15.635Z,6.43
2023-03-02T06:07:43.549Z,6.73
2023-03-02T06:10:14.016Z,6.10
2023-03-02T06:12:42.009Z,6.80
2023-03-02T06:15:10.550Z,6.33
2023-03-02T06:17:39.784Z,6.37
2023-03-02T06:20:10.858Z,6.43
2023-03-02T06:22:41.291Z,7.07
2023-03-02T06:25:10.750Z,6.77
2023-03-02T06:27:40.311Z,6.50
2023-03-02T06:30:11.936Z,6.70
2023-03-02T06:32:42.033Z,7.07
2023-03-02T06:35:12.249Z,6.60
2023-03-02T06:37:41.799Z,6.50
2023-03-02T06:40:13.894Z,6.73
2023-03-02T06:42:42.959Z,6.97
2023-03-02T06:45:12.594Z,6.57
2023-03-02T06:47:41.827Z,6.57
2023-03-02T06:50:11.236Z,6.80
2023-03-02T06:52:39.012Z,7.10
2023-03-02T06:55:08.190Z,6.57
2023-03-02T06:57:36.148Z,6.83
2023-03-02T07:00:09.710Z,6.27
2023-03-02T07:02:37.870Z,6.67
2023-03-02T07:05:08.564Z,7.73
2023-03-02T07:07:36.666Z,7.00
2023-03-02T07:10:06.229Z,6.43
2023-03-02T07:12:34.840Z,6.60
2023-03-02T07:15:02.715Z,6.50
2023-03-02T07:17:30.865Z,6.50
2023-03-02T07:19:58.710Z,6.47
2023-03-02T07:22:27.830Z,6.40
2023-03-02T07:24:55.649Z,6.43
2023-03-02T07:27:23.481Z,6.30
2023-03-02T07:29:51.646Z,6.80
2023-03-02T07:32:19.606Z,6.67
2023-03-02T07:34:47.364Z,6.57
2023-03-02T07:37:15.194Z,5.93
2023-03-02T07:39:44.494Z,6.70
2023-03-02T07:42:13.400Z,6.20
2023-03-02T07:44:43.515Z,6.97
2023-03-02T07:47:11.870Z,7.00
2023-03-02T07:49:39.846Z,6.70
2023-03-02T07:52:07.626Z,7.10
2023-03-02T07:54:35.577Z,6.73
2023-03-02T07:57:05.020Z,6.43
2023-03-02T07:59:32.890Z,7.37
2023-03-02T08:02:01.008Z,6.47
2023-03-02T08:04:28.769Z,7.07
2023-03-02T08:06:56.601Z,7.23
2023-03-02T08:09:24.602Z,6.90
2023-03-02T08:11:52.992Z,7.30
2023-03-02T08:14:22.902Z,6.97
2023-03-02T08:16:52.225Z,6.87
2023-03-02T08:19:20.499Z,7.23
2023-03-02T08:21:48.214Z,6.80
2023-03-02T08:24:16.792Z,7.10
2023-03-02T08:26:45.201Z,7.00
2023-03-02T08:29:13.632Z,7.10
2023-03-02T08:31:43.468Z,6.67
2023-03-02T08:34:12.241Z,7.00
2023-03-02T08:36:40.630Z,6.57
2023-03-02T08:39:08.678Z,7.00
2023-03-02T08:41:37.187Z,6.83
2023-03-02T08:44:05.359Z,7.20
2023-03-02T08:46:33.610Z,7.40
2023-03-02T08:49:03.841Z,6.83
2023-03-02T08:51:32.411Z,6.93
2023-03-02T08:54:00.982Z,6.40
2023-03-02T08:56:30.953Z,6.33
2023-03-02T08:59:00.731Z,6.40
2023-03-02T09:01:31.877Z,6.87
2023-03-02T09:04:00.972Z,5.73
2023-03-02T09:06:32.341Z,6.90
2023-03-02T09:09:00.266Z,6.73
2023-03-02T09:11:28.753Z,6.93
2023-03-02T09:13:57.252Z,7.60
2023-03-02T09:16:25.828Z,6.70
2023-03-02T09:18:53.743Z,7.10
2023-03-02T09:21:22.084Z,6.73
2023-03-02T09:23:53.885Z,6.80
2023-03-02T09:26:21.806Z,7.10
2023-03-02T09:28:49.814Z,6.73
2023-03-02T09:31:17.563Z,7.00
2023-03-02T09:33:45.896Z,7.03
2023-03-02T09:36:19.508Z,7.13
2023-03-02T09:38:48.009Z,7.03
2023-03-02T09:41:53.287Z,7.20
2023-03-02T09:44:43.776Z,7.37
2023-03-02T09:47:34.578Z,7.03
2023-03-02T09:50:12.518Z,6.90
2023-03-02T09:52:48.212Z,7.20
2023-03-02T09:55:19.502Z,6.87
2023-03-02T09:57:47.923Z,7.63
2023-03-02T10:00:24.758Z,7.30
2023-03-02T10:03:00.564Z,6.67
2023-03-02T10:05:38.634Z,7.20
2023-03-02T10:08:06.905Z,7.20
2023-03-02T10:10:42.165Z,7.27
2023-03-02T10:13:20.818Z,7.37
2023-03-02T10:15:57.070Z,6.73
2023-03-02T10:18:31.262Z,7.30
2023-03-02T10:21:04.534Z,7.43
2023-03-02T10:23:42.308Z,7.47
2023-03-02T10:26:22.050Z,7.50
2023-03-02T10:28:56.830Z,6.67
2023-03-02T10:31:29.262Z,7.43
2023-03-02T10:33:57.741Z,7.17
2023-03-02T10:36:27.747Z,7.67
2023-03-02T10:38:57.198Z,7.37
2023-03-02T10:41:30.178Z,7.57
2023-03-02T10:44:02.552Z,7.33
2023-03-02T10:46:42.094Z,7.60
2023-03-02T10:49:26.672Z,7.83
2023-03-02T10:51:59.943Z,7.73
2023-03-02T10:54:28.757Z,7.33
2023-03-02T10:56:59.715Z,7.33
2023-03-02T10:59:43.157Z,7.97
2023-03-02T11:02:19.118Z,7.30
2023-03-02T11:04:47.238Z,7.47
2023-03-02T11:07:18.776Z,7.53
2023-03-02T11:10:00.730Z,7.43
2023-03-02T11:12:29.741Z,6.97
2023-03-02T11:15:23.551Z,7.10
2023-03-02T11:17:56.513Z,7.17
2023-03-02T11:20:27.091Z,7.57
2023-03-02T11:23:02.795Z,7.77
2023-03-02T11:25:36.638Z,7.97
2023-03-02T11:28:11.042Z,7.27
2023-03-02T11:30:46.472Z,7.53
2023-03-02T11:33:20.679Z,6.93
2023-03-02T11:35:54.263Z,6.77
2023-03-02T11:38:26.733Z,7.53
2023-03-02T11:40:57.890Z,7.00
2023-03-02T11:43:25.798Z,7.00
2023-03-02T11:46:00.245Z,7.00
2023-03-02T11:48:34.500Z,7.23
2023-03-02T11:51:04.936Z,8.10
2023-03-02T11:53:42.637Z,7.27
2023-03-02T11:56:11.380Z,7.73
2023-03-02T11:58:40.499Z,6.93
2023-03-02T12:01:11.117Z,8.97
2023-03-02T12:03:42.622Z,6.97
2023-03-02T12:06:28.521Z,7.53
2023-03-02T12:09:09.948Z,7.30
2023-03-02T12:11:41.221Z,6.70
2023-03-02T12:14:28.209Z,6.63
2023-03-02T12:17:19.480Z,7.10
2023-03-02T12:19:50.850Z,7.37
2023-03-02T12:22:28.869Z,6.73
2023-03-02T12:25:06.378Z,8.00
2023-03-02T12:27:42.022Z,7.20
2023-03-02T12:30:24.680Z,6.90
2023-03-02T12:33:02.993Z,6.93
2023-03-02T12:35:34.968Z,6.90
2023-03-02T12:38:06.398Z,6.80
2023-03-02T12:40:57.894Z,6.70
2023-03-02T12:43:32.101Z,6.90
2023-03-02T12:46:25.097Z,7.03
2023-03-02T12:49:01.208Z,6.83
2023-03-02T12:51:33.351Z,6.33
2023-03-02T12:54:06.559Z,6.63
2023-03-02T12:56:35.009Z,6.93
2023-03-02T12:59:02.960Z,6.87
2023-03-02T13:01:34.316Z,6.57
2023-03-02T13:04:02.404Z,7.03
2023-03-02T13:06:33.868Z,7.90
2023-03-02T13:09:02.180Z,6.77
2023-03-02T13:11:34.384Z,6.93
2023-03-02T13:14:04.136Z,6.60
2023-03-02T13:16:36.794Z,6.73
2023-03-02T13:19:16.716Z,6.10
2023-03-02T13:21:46.129Z,6.50
2023-03-02T13:24:35.979Z,6.77
2023-03-02T13:27:07.614Z,6.50
2023-03-02T13:29:35.494Z,6.27
2023-03-02T13:32:18.408Z,6.83
2023-03-02T13:34:49.504Z,6.43
2023-03-02T13:37:34.870Z,6.43
2023-03-02T13:40:06.707Z,6.57
2023-03-02T13:42:40.359Z,6.20
2023-03-02T13:45:25.054Z,6.57
2023-03-02T13:47:52.998Z,6.63
2023-03-02T13:50:23.701Z,5.97
2023-03-02T13:52:54.279Z,6.13
2023-03-02T13:55:23.370Z,6.00
2023-03-02T13:57:53.896Z,6.50
2023-03-02T14:00:24.167Z,6.13
2023-03-02T14:02:52.761Z,6.37
2023-03-02T14:05:22.782Z,7.07
2023-03-02T14:07:51.692Z,6.13
2023-03-02T14:10:21.922Z,6.57
2023-03-02T14:12:55.295Z,6.37
2023-03-02T14:15:23.134Z,6.13
2023-03-02T14:17:50.998Z,6.63
2023-03-02T14:20:21.125Z,6.20
2023-03-02T14:22:50.515Z,6.87
2023-03-02T14:25:20.536Z,6.20
2023-03-02T14:27:48.442Z,5.93
2023-03-02T14:30:18.491Z,6.27
2023-03-02T14:32:46.894Z,6.20
2023-03-02T14:35:16.773Z,6.57
2023-03-02T14:37:47.861Z,6.97
2023-03-02T14:40:18.276Z,6.30
2023-03-02T14:42:48.504Z,6.50
2023-03-02T14:45:17.292Z,6.33
2023-03-02T14:47:45.371Z,6.83
2023-03-02T14:50:14.514Z,6.33
2023-03-02T14:52:45.684Z,6.60
2023-03-02T14:55:19.305Z,6.50
2023-03-02T14:57:53.276Z,6.47
2023-03-02T15:00:22.482Z,6.67
2023-03-02T15:02:50.371Z,6.73
2023-03-02T15:05:18.928Z,7.10
2023-03-02T15:07:47.405Z,7.00
2023-03-02T15:10:19.369Z,6.93
2023-03-02T15:12:49.171Z,7.47
2023-03-02T15:15:17.431Z,6.70
2023-03-02T15:17:45.218Z,7.30
2023-03-02T15:20:15.573Z,7.30
2023-03-02T15:22:43.657Z,6.83
2023-03-02T15:25:11.610Z,7.10
2023-03-02T15:27:39.464Z,7.23
2023-03-02T15:30:10.265Z,6.77
2023-03-02T15:32:38.109Z,7.50
2023-03-02T15:35:06.761Z,7.07
2023-03-02T15:37:34.996Z,7.90
2023-03-02T15:40:02.700Z,7.57
2023-03-02T15:42:30.560Z,7.63
2023-03-02T15:44:58.352Z,7.47
2023-03-02T15:47:27.704Z,7.40
2023-03-02T15:49:55.506Z,7.73
2023-03-02T15:52:23.369Z,6.67
2023-03-02T15:54:51.368Z,7.47
2023-03-02T15:57:19.678Z,7.33
2023-03-02T15:59:47.960Z,6.90
2023-03-02T16:02:16.575Z,7.30
2023-03-02T16:04:46.491Z,7.60
2023-03-02T16:07:14.987Z,8.97
2023-03-02T16:09:45.246Z,7.73
2023-03-02T16:12:13.248Z,8.30
2023-03-02T16:14:41.314Z,8.27
2023-03-02T16:17:09.052Z,7.87
2023-03-02T16:19:37.800Z,8.27
2023-03-02T16:22:07.042Z,8.30
2023-03-02T16:24:34.747Z,8.63
2023-03-02T16:27:02.575Z,8.50
2023-03-02T16:29:31.114Z,8.07
2023-03-02T16:31:59.335Z,9.03
2023-03-02T16:34:27.210Z,8.57
2023-03-02T16:36:54.977Z,8.47
2023-03-02T16:39:24.486Z,8.90
2023-03-02T16:41:52.725Z,7.63
2023-03-02T16:44:20.835Z,8.57
2023-03-02T16:46:48.619Z,8.67
2023-03-02T16:49:16.544Z,7.80
2023-03-02T16:51:44.661Z,7.97
2023-03-02T16:54:16.760Z,8.67
2023-03-02T16:56:47.315Z,8.27
2023-03-02T16:59:15.666Z,8.67
2023-03-02T17:01:43.618Z,7.70
2023-03-02T17:04:11.477Z,7.47
2023-03-02T17:06:41.692Z,9.17
2023-03-02T17:09:10.256Z,9.40
2023-03-02T17:11:38.877Z,8.77
2023-03-02T17:14:08.136Z,9.13
2023-03-02T17:16:36.045Z,9.80
2023-03-02T17:19:03.779Z,9.73
2023-03-02T17:21:31.591Z,9.67
2023-03-02T17:23:59.485Z,8.30
2023-03-02T17:26:28.954Z,8.93
2023-03-02T17:28:56.775Z,9.47
2023-03-02T17:31:26.758Z,8.63
2023-03-02T17:33:54.542Z,8.63
2023-03-02T17:36:22.258Z,9.27
2023-03-02T17:38:50.223Z,9.03
2023-03-02T17:41:18.157Z,8.70
2023-03-02T17:43:45.983Z,8.90
2023-03-02T17:46:16.194Z,9.37
2023-03-02T17:48:45.461Z,9.20
2023-03-02T17:51:14.923Z,10.40
2023-03-02T17:53:43.145Z,10.10
2023-03-02T17:56:12.084Z,10.77
2023-03-02T17:58:44.959Z,12.00
2023-03-02T18:01:15.554Z,12.53
2023-03-02T18:03:44.942Z,12.63
2023-03-02T18:06:17.884Z,13.00
2023-03-02T18:08:46.011Z,13.07
2023-03-02T18:11:13.911Z,13.17
2023-03-02T18:13:41.687Z,13.50
2023-03-02T18:16:09.756Z,12.93
2023-03-02T18:18:37.794Z,13.53
2023-03-02T18:21:06.093Z,14.07
2023-03-02T18:23:35.565Z,13.60
2023-03-02T18:26:03.390Z,12.23
2023-03-02T18:28:31.134Z,13.63
2023-03-02T18:30:58.957Z,13.73
2023-03-02T18:33:27.475Z,12.87
2023-03-02T18:35:55.291Z,13.67
2023-03-02T18:38:23.076Z,13.80
2023-03-02T18:40:52.314Z,14.77
2023-03-02T18:43:20.059Z,15.10
2023-03-02T18:45:47.907Z,13.97
2023-03-02T18:48:15.754Z,12.83
2023-03-02T18:50:43.932Z,14.00
2023-03-02T18:53:12.961Z,14.00
2023-03-02T18:55:41.325Z,14.17
2023-03-02T18:58:18.275Z,13.20
2023-03-02T19:00:47.027Z,14.07
2023-03-02T19:03:16.055Z,13.93
2023-03-02T19:05:45.164Z,14.17
2023-03-02T19:08:13.227Z,14.43
2023-03-02T19:10:42.428Z,13.90
2023-03-02T19:13:11.999Z,14.00
2023-03-02T19:15:40.363Z,13.30
2023-03-02T19:18:08.723Z,13.47
2023-03-02T19:20:36.859Z,14.03
2023-03-02T19:23:04.722Z,14.00
2023-03-02T19:25:32.483Z,13.37
2023-03-02T19:28:00.203Z,14.13
2023-03-02T19:30:29.664Z,13.67
2023-03-02T19:32:57.856Z,14.30
2023-03-02T19:35:28.200Z,14.27
2023-03-02T19:37:56.477Z,16.00
2023-03-02T19:40:27.757Z,14.13
2023-03-02T19:42:57.518Z,13.87
2023-03-02T19:45:29.206Z,14.83
2023-03-02T19:47:59.658Z,14.27
2023-03-02T19:50:28.225Z,14.67
2023-03-02T19:52:56.654Z,14.37
2023-03-02T19:55:25.462Z,15.57
2023-03-02T19:57:59.843Z,15.53
2023-03-02T20:00:29.809Z,15.53
2023-03-02T20:02:59.747Z,15.83
2023-03-02T20:05:28.351Z,16.77
2023-03-02T20:07:56.865Z,17.17
2023-03-02T20:10:31.352Z,16.63
2023-03-02T20:13:00.362Z,17.10
2023-03-02T20:15:29.878Z,17.43
2023-03-02T20:18:02.406Z,17.63
2023-03-02T20:20:30.913Z,17.37
2023-03-02T20:23:00.090Z,16.37
2023-03-02T20:25:28.731Z,17.30
2023-03-02T20:27:58.123Z,16.27
2023-03-02T20:30:30.155Z,16.83
2023-03-02T20:33:00.671Z,17.80
2023-03-02T20:35:31.677Z,17.27
2023-03-02T20:38:05.313Z,16.90
2023-03-02T20:40:33.320Z,17.70
2023-03-02T20:43:01.240Z,17.43
2023-03-02T20:45:29.712Z,17.53
2023-03-02T20:47:59.133Z,18.40
2023-03-02T20:50:31.144Z,18.80
2023-03-02T20:52:59.541Z,19.70
2023-03-02T20:55:27.759Z,19.73
2023-03-02T20:57:56.549Z,19.80
2023-03-02T21:00:28.347Z,20.47
2023-03-02T21:02:57.095Z,21.20
2023-03-02T21:05:27.976Z,21.47
2023-03-02T21:07:56.139Z,21.27
2023-03-02T21:10:27.580Z,21.07
2023-03-02T21:12:55.780Z,21.73
2023-03-02T21:15:27.242Z,21.47
2023-03-02T21:17:55.764Z,20.37
2023-03-02T21:20:24.676Z,21.80
2023-03-02T21:22:54.020Z,22.43
2023-03-02T21:25:22.148Z,21.23
2023-03-02T21:27:49.918Z,21.40
2023-03-02T21:30:22.398Z,22.57
2023-03-02T21:32:50.633Z,23.63
2023-03-02T21:35:20.956Z,22.67
2023-03-02T21:37:50.474Z,22.63
2023-03-02T21:40:22.134Z,22.57
2023-03-02T21:42:49.952Z,23.23
2023-03-02T21:45:18.630Z,23.80
2023-03-02T21:47:46.954Z,23.30
2023-03-02T21:50:20.413Z,24.40
2023-03-02T21:52:48.310Z,23.27
2023-03-02T21:55:16.194Z,24.17
2023-03-02T21:57:46.032Z,25.10
2023-03-02T22:00:20.994Z,24.77
2023-03-02T22:02:49.113Z,24.00
2023-03-02T22:05:17.134Z,24.60
2023-03-02T22:07:45.533Z,24.20
2023-03-02T22:10:23.378Z,26.23
2023-03-02T22:12:55.919Z,26.27
2023-03-02T22:15:24.821Z,26.13
2023-03-02T22:17:52.995Z,26.63
2023-03-02T22:20:21.359Z,27.00
2023-03-02T22:22:50.711Z,27.53
2023-03-02T22:25:20.007Z,26.70
2023-03-02T22:27:48.083Z,27.70
2023-03-02T22:30:21.505Z,27.27
2023-03-02T22:32:49.913Z,28.43
2023-03-02T22:35:23.420Z,30.00
2023-03-02T22:37:52.770Z,28.93
2023-03-02T22:40:30.220Z,28.93
2023-03-02T22:43:10.968Z,30.00
2023-03-02T22:45:41.814Z,29.67
2023-03-02T22:48:15.740Z,29.00
2023-03-02T22:50:44.996Z,30.07
2023-03-02T22:53:29.180Z,29.13
2023-03-02T22:55:59.479Z,30.07
2023-03-02T22:58:43.793Z,31.97
2023-03-02T23:01:22.166Z,31.77
2023-03-02T23:03:52.683Z,32.50
2023-03-02T23:06:26.926Z,34.73
2023-03-02T23:08:56.491Z,35.47
2023-03-02T23:11:25.432Z,34.67
2023-03-02T23:13:54.754Z,33.83
2023-03-02T23:16:26.190Z,32.57
2023-03-02T23:18:56.012Z,34.83
2023-03-02T23:21:28.220Z,34.70
2023-03-02T23:23:56.806Z,34.07
2023-03-02T23:26:24.753Z,35.17
2023-03-02T23:28:52.680Z,32.37
2023-03-02T23:31:21.219Z,32.20
2023-03-02T23:33:50.408Z,33.13
2023-03-02T23:36:21.091Z,33.87
2023-03-02T23:38:49.178Z,35.60
2023-03-02T23:41:18.338Z,34.37
2023-03-02T23:43:46.218Z,35.67
2023-03-02T23:46:14.538Z,34.60
2023-03-02T23:48:42.721Z,34.70
2023-03-02T23:51:12.016Z,34.73
2023-03-02T23:53:39.956Z,33.50
2023-03-02T23:56:08.110Z,35.23
2023-03-02T23:58:35.959Z,34.23
